createdAt,value
2018-07-05T00:00:53.725Z,2.43
2018-07-05T00:03:27.426Z,2.70
2018-07-05T00:06:01.433Z,2.80
2018-07-05T00:08:35.807Z,2.37
2018-07-05T00:11:09.513Z,2.30
2018-07-05T00:13:43.217Z,2.80
2018-07-05T00:16:16.996Z,2.23
2018-07-05T00:18:50.724Z,2.50
2018-07-05T00:21:24.337Z,2.50
2018-07-05T00:23:58.014Z,2.80
2018-07-05T00:26:31.857Z,2.80
2018-07-05T00:29:06.844Z,2.70
2018-07-05T00:31:40.580Z,2.80
2018-07-05T00:34:14.374Z,2.97
2018-07-05T00:36:48.100Z,3.10
2018-07-05T00:39:21.891Z,3.03
2018-07-05T00:41:55.627Z,2.53
2018-07-05T00:44:29.300Z,2.87
2018-07-05T00:47:03.673Z,3.30
2018-07-05T00:49:37.309Z,3.07
2018-07-05T00:52:11.624Z,3.20
2018-07-05T00:54:45.297Z,3.20
2018-07-05T00:57:19.650Z,3.80
2018-07-05T00:59:53.998Z,3.40
2018-07-05T01:02:27.579Z,3.30
2018-07-05T01:05:01.274Z,4.17
2018-07-05T01:07:34.844Z,3.70
2018-07-05T01:10:08.692Z,3.65
2018-07-05T01:12:42.673Z,3.63
2018-07-05T01:15:16.395Z,3.50
2018-07-05T01:17:50.176Z,3.77
2018-07-05T01:20:23.805Z,4.07
2018-07-05T01:22:57.495Z,3.70
2018-07-05T01:25:31.082Z,3.20
2018-07-05T01:28:04.796Z,3.50
2018-07-05T01:30:38.390Z,3.50
2018-07-05T01:33:12.076Z,3.43
2018-07-05T01:35:46.279Z,3.90
2018-07-05T01:38:20.739Z,4.10
2018-07-05T01:40:54.404Z,3.47
2018-07-05T01:43:28.165Z,3.80
2018-07-05T01:46:01.971Z,4.13
2018-07-05T01:48:35.793Z,3.73
2018-07-05T01:51:09.661Z,4.43
2018-07-05T01:53:43.463Z,3.73
2018-07-05T01:56:17.180Z,4.17
2018-07-05T02:03:45.701Z,4.03
2018-07-05T02:06:19.634Z,3.90
2018-07-05T02:11:20.892Z,3.83
2018-07-05T02:13:54.969Z,3.80
2018-07-05T02:16:28.670Z,4.20
2018-07-05T02:19:03.126Z,4.07
2018-07-05T02:21:36.691Z,4.00
2018-07-05T02:24:10.388Z,3.93
2018-07-05T02:26:44.119Z,3.97
2018-07-05T02:29:18.362Z,4.27
2018-07-05T02:31:51.940Z,3.83
2018-07-05T02:34:25.515Z,4.10
2018-07-05T02:37:00.084Z,4.77
2018-07-05T02:39:39.230Z,4.40
2018-07-05T02:42:14.053Z,4.10
2018-07-05T02:44:47.709Z,4.13
2018-07-05T02:47:21.466Z,3.80
2018-07-05T02:49:55.260Z,4.73
2018-07-05T02:52:28.874Z,4.50
2018-07-05T02:55:02.610Z,4.80
2018-07-05T02:57:36.455Z,4.70
2018-07-05T03:07:33.033Z,4.27
2018-07-05T03:10:06.933Z,4.30
2018-07-05T04:01:50.585Z,5.47
2018-07-05T04:04:24.480Z,5.30
2018-07-05T04:06:58.394Z,5.07
2018-07-05T04:09:32.229Z,5.20
2018-07-05T04:12:05.870Z,5.20
2018-07-05T04:14:39.813Z,5.27
2018-07-05T04:17:14.097Z,5.47
2018-07-05T04:19:50.711Z,5.20
2018-07-05T04:22:24.565Z,4.77
2018-07-05T04:24:58.278Z,5.03
2018-07-05T04:27:32.734Z,4.80
2018-07-05T04:30:06.331Z,5.53
2018-07-05T04:32:39.908Z,4.87
2018-07-05T04:35:13.506Z,5.40
2018-07-05T04:37:47.093Z,5.53
2018-07-05T04:40:20.711Z,5.50
2018-07-05T04:42:54.552Z,4.80
2018-07-05T04:45:28.252Z,4.90
2018-07-05T04:48:01.835Z,5.47
2018-07-05T04:50:35.491Z,4.90
2018-07-05T04:53:09.280Z,5.20
2018-07-05T04:55:43.097Z,5.47
2018-07-05T04:58:16.948Z,6.00
2018-07-05T05:00:51.507Z,5.43
2018-07-05T05:03:25.224Z,5.83
2018-07-05T05:05:58.936Z,5.53
2018-07-05T05:08:32.612Z,5.93
2018-07-05T05:11:06.221Z,5.30
2018-07-05T05:13:39.926Z,5.78
2018-07-05T05:16:13.620Z,6.37
2018-07-05T05:18:47.347Z,5.77
2018-07-05T05:21:21.125Z,6.00
2018-07-05T05:23:54.939Z,7.17
2018-07-05T05:26:28.739Z,6.00
2018-07-05T05:29:02.460Z,6.28
2018-07-05T05:31:36.121Z,5.80
2018-07-05T05:34:09.950Z,5.85
2018-07-05T05:36:43.744Z,7.22
2018-07-05T05:39:18.176Z,6.47
2018-07-05T05:41:51.888Z,7.08
2018-07-05T05:44:25.782Z,6.80
2018-07-05T05:46:59.763Z,7.08
2018-07-05T05:49:33.407Z,6.55
2018-07-05T05:52:08.708Z,6.62
2018-07-05T05:54:42.477Z,6.42
2018-07-05T05:57:16.035Z,6.67
2018-07-05T05:59:49.867Z,7.17
2018-07-05T06:02:23.505Z,7.05
2018-07-05T06:04:57.253Z,7.20
2018-07-05T06:07:31.051Z,6.97
2018-07-05T06:10:04.666Z,7.15
2018-07-05T06:12:38.369Z,7.05
2018-07-05T06:15:12.075Z,7.58
2018-07-05T06:17:46.359Z,7.22
2018-07-05T06:20:19.976Z,7.47
2018-07-05T06:22:54.090Z,6.80
2018-07-05T06:25:27.676Z,7.63
2018-07-05T06:28:01.538Z,7.53
2018-07-05T06:30:35.279Z,7.70
2018-07-05T06:33:09.114Z,8.60
2018-07-05T06:35:42.750Z,8.63
2018-07-05T06:38:16.443Z,8.90
2018-07-05T06:40:50.194Z,8.67
2018-07-05T06:43:23.936Z,8.70
2018-07-05T06:45:57.782Z,8.90
2018-07-05T06:48:31.585Z,8.87
2018-07-05T06:51:05.502Z,10.07
2018-07-05T06:53:39.422Z,9.80
2018-07-05T06:56:13.376Z,9.27
2018-07-05T06:58:47.967Z,9.03
2018-07-05T07:01:21.723Z,9.57
2018-07-05T07:03:55.480Z,8.47
2018-07-05T07:06:29.213Z,9.33
2018-07-05T07:12:08.549Z,9.43
2018-07-05T08:15:56.422Z,9.60
2018-07-05T08:18:24.085Z,8.90
2018-07-05T08:20:51.837Z,8.77
2018-07-05T08:23:19.475Z,8.77
2018-07-05T08:25:47.200Z,8.60
2018-07-05T08:28:14.879Z,8.33
2018-07-05T08:30:42.518Z,8.73
2018-07-05T08:33:10.191Z,8.87
2018-07-05T08:35:37.810Z,9.27
2018-07-05T08:38:05.416Z,8.97
2018-07-05T08:40:33.028Z,8.63
2018-07-05T08:43:00.618Z,8.53
2018-07-05T08:45:29.110Z,8.23
2018-07-05T08:47:56.657Z,8.27
2018-07-05T08:50:25.212Z,8.97
2018-07-05T08:52:52.829Z,7.83
2018-07-05T08:55:20.583Z,7.33
2018-07-05T08:57:48.142Z,7.90
2018-07-05T09:00:15.887Z,7.70
2018-07-05T09:02:43.508Z,6.53
2018-07-05T09:05:11.438Z,6.70
2018-07-05T09:07:38.966Z,6.47
2018-07-05T09:10:06.563Z,6.90
2018-07-05T09:12:34.271Z,5.97
2018-07-05T09:15:02.791Z,5.23
2018-07-05T09:17:30.439Z,6.20
2018-07-05T09:19:58.011Z,7.10
2018-07-05T09:22:25.611Z,6.37
2018-07-05T09:24:53.325Z,5.87
2018-07-05T09:27:22.139Z,7.10
2018-07-05T09:29:49.743Z,7.50
2018-07-05T09:32:17.344Z,7.00
2018-07-05T09:34:44.971Z,7.63
2018-07-05T09:37:12.556Z,6.93
2018-07-05T09:39:40.228Z,7.23
2018-07-05T09:42:07.851Z,7.63
2018-07-05T09:44:35.528Z,7.10
2018-07-05T09:47:03.447Z,7.00
2018-07-05T09:49:31.686Z,7.80
2018-07-05T09:51:59.306Z,6.50
2018-07-05T09:54:26.915Z,5.77
2018-07-05T09:56:54.569Z,6.03
2018-07-05T09:59:22.236Z,6.10
2018-07-05T10:01:49.894Z,6.33
2018-07-05T10:04:17.622Z,6.63
2018-07-05T10:06:45.324Z,6.63
2018-07-05T10:09:13.577Z,6.13
2018-07-05T10:11:41.456Z,6.07
2018-07-05T10:14:09.109Z,4.90
2018-07-05T10:16:36.847Z,6.30
2018-07-05T10:19:04.546Z,6.33
2018-07-05T10:21:32.797Z,5.10
2018-07-05T10:29:01.406Z,5.30
2018-07-05T10:31:35.216Z,5.13
2018-07-05T10:34:02.801Z,5.33
2018-07-05T10:36:30.427Z,4.33
2018-07-05T10:38:58.095Z,4.50
2018-07-05T10:43:59.636Z,4.70
2018-07-05T10:46:33.487Z,5.42
2018-07-05T10:49:07.291Z,5.50
2018-07-05T10:51:41.112Z,5.60
2018-07-05T10:54:14.896Z,5.77
2018-07-05T10:56:48.995Z,6.17
2018-07-05T10:59:22.918Z,4.97
2018-07-05T11:01:56.654Z,5.67
2018-07-05T15:36:53.482Z,1.70
2018-07-05T15:39:27.361Z,1.50
2018-07-05T18:46:28.639Z,1.20
2018-07-05T18:49:02.232Z,0.88
2018-07-05T18:51:36.038Z,1.20
2018-07-05T18:54:09.825Z,0.90
2018-07-05T18:56:44.044Z,1.00
2018-07-05T18:59:18.380Z,1.07
2018-07-05T19:01:52.241Z,1.00
2018-07-05T19:04:26.401Z,0.97
2018-07-05T19:07:00.034Z,1.20
2018-07-05T19:09:34.108Z,1.05
2018-07-05T19:12:07.850Z,1.03
2018-07-05T19:14:42.114Z,0.93
2018-07-05T19:17:15.862Z,1.20
2018-07-05T19:19:50.452Z,1.00
2018-07-05T19:22:24.202Z,1.10
2018-07-05T19:24:58.161Z,1.00
2018-07-05T19:27:31.888Z,1.10
2018-07-05T19:30:05.595Z,1.10
2018-07-05T19:32:39.269Z,1.30
2018-07-05T19:35:12.886Z,1.20
2018-07-05T19:37:46.592Z,1.10
2018-07-05T19:40:20.415Z,1.10
2018-07-05T19:42:54.397Z,1.20
2018-07-05T19:45:28.077Z,1.43
2018-07-05T19:48:01.906Z,1.03
2018-07-05T19:50:35.920Z,1.60
2018-07-05T19:53:09.720Z,1.30
2018-07-05T19:55:43.541Z,1.40
2018-07-05T19:58:18.161Z,1.33
2018-07-05T20:00:51.791Z,1.27
2018-07-05T20:03:25.472Z,1.33
2018-07-05T20:05:59.213Z,1.43
2018-07-05T20:08:33.073Z,1.40
2018-07-05T20:11:06.970Z,1.20
2018-07-05T20:13:41.897Z,1.50
2018-07-05T20:16:15.929Z,1.40
2018-07-05T20:18:49.713Z,1.40
2018-07-05T20:21:23.500Z,1.20
2018-07-05T20:23:57.396Z,1.43
2018-07-05T20:26:31.271Z,1.40
2018-07-05T20:29:05.702Z,1.47
2018-07-05T20:31:39.455Z,1.40
2018-07-05T20:34:12.975Z,1.30
2018-07-05T20:36:46.502Z,1.20
2018-07-05T20:39:20.288Z,1.13
2018-07-05T20:41:53.981Z,1.20
2018-07-05T20:44:27.611Z,1.23
2018-07-05T20:47:02.011Z,1.50
2018-07-05T20:49:35.826Z,1.40
2018-07-05T20:52:09.480Z,1.20
2018-07-05T20:54:43.333Z,1.17
2018-07-05T20:57:17.152Z,1.37
2018-07-05T20:59:50.925Z,1.37
2018-07-05T21:02:24.772Z,1.37
2018-07-05T21:04:59.385Z,1.43
2018-07-05T21:07:33.089Z,1.50
2018-07-05T21:10:06.857Z,1.27
2018-07-05T21:12:40.725Z,1.30
2018-07-05T21:15:14.505Z,1.43
2018-07-05T21:17:49.339Z,1.30
2018-07-05T21:20:23.055Z,1.20
2018-07-05T21:22:57.041Z,1.27
2018-07-05T21:25:30.832Z,1.00
2018-07-05T21:28:04.690Z,1.63
2018-07-05T21:30:39.059Z,1.20
2018-07-05T21:33:13.545Z,1.20
2018-07-05T21:35:47.137Z,1.30
2018-07-05T21:38:21.507Z,1.40
2018-07-05T21:40:55.456Z,1.20
2018-07-05T21:43:29.110Z,1.40
2018-07-05T21:46:02.740Z,1.27
2018-07-05T21:48:36.455Z,1.20
2018-07-05T21:51:10.143Z,1.43
2018-07-05T21:58:39.278Z,1.20
2018-07-05T22:11:03.402Z,1.40
2018-07-05T22:13:37.200Z,1.57
2018-07-05T22:16:11.000Z,1.20
2018-07-05T22:26:28.240Z,1.40
2018-07-05T22:29:07.238Z,1.43
2018-07-05T22:31:40.913Z,1.50
2018-07-05T22:34:14.609Z,1.40
2018-07-05T22:36:48.331Z,1.17
2018-07-05T22:39:22.476Z,1.23
2018-07-05T22:41:56.146Z,1.33
2018-07-05T22:44:29.729Z,1.47
2018-07-05T22:47:03.747Z,1.57
2018-07-05T22:49:37.544Z,2.03
2018-07-05T22:52:11.283Z,1.40
2018-07-05T22:54:45.138Z,1.60
2018-07-05T22:57:18.701Z,1.90
2018-07-05T22:59:53.097Z,1.70
2018-07-05T23:07:21.913Z,2.00
2018-07-05T23:09:55.740Z,1.90
2018-07-05T23:12:29.620Z,2.10
2018-07-05T23:15:03.324Z,1.87
2018-07-05T23:17:37.044Z,2.00
2018-07-05T23:20:10.688Z,2.50
2018-07-05T23:22:44.346Z,2.17
2018-07-05T23:25:18.204Z,1.87
2018-07-05T23:27:51.998Z,1.87
2018-07-05T23:30:25.830Z,2.00
